Terminal Aerodrome Forecast
Issued by NWS

Home | Current Version | Previous Version | Text Only | Print | Product List | Glossary On
Versions: 1 2 3 4 5 6 7 8 9 10 11 12
000
FTUS45 KRIW 212300
TAFCPR
TAF
KCPR 212336Z 2200/2224 24014G24KT P6SM SCT080 SCT120
     FM220100 25014KT P6SM VCSH BKN080
     FM220600 01011KT P6SM SCT060 SCT100
     FM221300 09007KT P6SM FEW010 SCT200
     FM222000 VRB06G15KT P6SM VCTS FEW050CB BKN100=

USA.gov is the U.S. government's official web portal to all federal, state and local government web resources and services.